South Sound, Washington
Current Conditions -  °F | °C
As of 7:54 AM on Saturday 20 Dec 2014 (Local Time) from KOLM Reporting Station
Light Rain Light Rain  
Wind Chill: 41°   Ceiling: 1800
Heat Index: 46°   Visibility: 6mi
Dew Point: 42°   Wind: 9mph
Humidity: 86%   Direction: 220°SW
Pressure: 29.62"   Gusts: NA
Location:  46.9755°N, 122.872°W
Report Text: KOLM 201554Z 22008KT 6SM -RA BR OVC018 08/06 A2962 RMK AO2 SLP032 P0002 T00780056
Loading
Personal Weather Stations






























Interactive Weather Map New forecast layout! Learn more

10-Day Weather Forecast

Advertisements
Track Severe Weather on mobile